createdAt,value
2022-10-20T00:00:50.564Z,1.73
2022-10-20T00:03:17.364Z,1.97
2022-10-20T00:05:44.049Z,1.87
2022-10-20T00:08:10.660Z,1.60
2022-10-20T00:10:37.357Z,1.60
2022-10-20T00:13:03.954Z,1.80
2022-10-20T00:15:30.563Z,1.90
2022-10-20T00:17:57.972Z,1.60
2022-10-20T00:20:24.689Z,1.70
2022-10-20T00:22:51.301Z,1.60
2022-10-20T00:25:18.011Z,1.97
2022-10-20T00:27:44.621Z,1.83
2022-10-20T00:30:11.392Z,1.70
2022-10-20T00:32:38.508Z,1.80
2022-10-20T00:35:05.650Z,2.03
2022-10-20T00:37:32.215Z,1.83
2022-10-20T00:39:58.798Z,1.60
2022-10-20T00:42:25.366Z,1.60
2022-10-20T00:44:56.723Z,1.73
2022-10-20T00:47:43.762Z,1.70
2022-10-20T00:50:25.152Z,1.63
2022-10-20T00:52:53.296Z,1.70
2022-10-20T00:55:26.762Z,1.60
2022-10-20T00:57:55.640Z,1.57
2022-10-20T01:00:22.843Z,2.77
2022-10-20T01:02:50.961Z,1.70
2022-10-20T01:05:17.951Z,2.03
2022-10-20T01:07:44.558Z,1.73
2022-10-20T01:10:12.253Z,2.00
2022-10-20T01:12:53.901Z,1.90
2022-10-20T01:15:32.546Z,1.70
2022-10-20T01:18:22.267Z,1.80
2022-10-20T01:21:07.576Z,1.90
2022-10-20T01:23:46.219Z,1.73
2022-10-20T01:26:29.383Z,1.60
2022-10-20T01:29:00.768Z,1.80
2022-10-20T01:31:38.335Z,1.97
2022-10-20T01:34:21.310Z,1.60
2022-10-20T01:36:58.289Z,1.70
2022-10-20T01:39:30.596Z,1.90
2022-10-20T01:42:11.329Z,1.60
2022-10-20T01:44:41.038Z,1.90
2022-10-20T01:47:09.875Z,1.80
2022-10-20T01:49:36.977Z,1.70
2022-10-20T01:52:04.276Z,1.80
2022-10-20T01:54:31.074Z,1.73
2022-10-20T01:57:06.491Z,1.70
2022-10-20T01:59:42.417Z,1.33
2022-10-20T02:02:21.990Z,2.00
2022-10-20T02:05:02.599Z,1.70
2022-10-20T02:07:31.068Z,1.77
2022-10-20T02:10:06.618Z,1.80
2022-10-20T02:12:38.783Z,1.80
2022-10-20T02:15:07.233Z,1.70
2022-10-20T02:17:37.009Z,1.60
2022-10-20T02:20:06.082Z,1.70
2022-10-20T02:22:33.527Z,1.90
2022-10-20T02:25:00.666Z,1.80
2022-10-20T02:27:38.980Z,1.77
2022-10-20T02:30:12.114Z,1.70
2022-10-20T02:32:41.062Z,1.77
2022-10-20T02:35:14.839Z,2.03
2022-10-20T02:37:41.588Z,1.90
2022-10-20T02:40:08.751Z,1.73
2022-10-20T02:42:35.707Z,2.53
2022-10-20T02:45:02.592Z,2.10
2022-10-20T02:47:29.291Z,1.83
2022-10-20T02:49:55.961Z,1.80
2022-10-20T02:52:22.538Z,1.90
2022-10-20T02:54:49.115Z,2.27
2022-10-20T02:57:15.745Z,2.03
2022-10-20T02:59:42.312Z,1.87
2022-10-20T03:02:08.972Z,1.97
2022-10-20T03:04:35.657Z,2.00
2022-10-20T03:07:02.302Z,2.17
2022-10-20T03:09:28.959Z,1.73
2022-10-20T03:11:55.581Z,1.83
2022-10-20T03:14:22.276Z,2.30
2022-10-20T03:16:48.854Z,1.90
2022-10-20T03:19:15.556Z,2.20
2022-10-20T03:21:42.165Z,2.20
2022-10-20T03:24:08.781Z,2.20
2022-10-20T03:26:35.387Z,2.43
2022-10-20T03:29:01.969Z,2.10
2022-10-20T03:31:28.605Z,2.10
2022-10-20T03:33:55.244Z,2.23
2022-10-20T03:36:21.849Z,2.40
2022-10-20T03:38:48.446Z,2.43
2022-10-20T03:41:15.019Z,2.00
2022-10-20T03:43:42.067Z,2.13
2022-10-20T03:46:11.129Z,1.90
2022-10-20T03:48:39.101Z,2.07
2022-10-20T03:51:06.384Z,2.13
2022-10-20T03:53:33.496Z,2.23
2022-10-20T03:56:04.617Z,2.40
2022-10-20T03:58:31.203Z,2.10
2022-10-20T04:00:58.049Z,2.30
2022-10-20T04:03:24.653Z,2.20
2022-10-20T04:05:51.291Z,2.47
2022-10-20T04:08:18.014Z,2.40
2022-10-20T04:10:44.624Z,3.47
2022-10-20T04:13:11.251Z,2.70
2022-10-20T04:15:37.810Z,2.70
2022-10-20T04:18:04.488Z,3.20
2022-10-20T04:20:31.252Z,2.63
2022-10-20T04:22:57.868Z,2.03
2022-10-20T04:25:24.450Z,2.27
2022-10-20T04:27:51.050Z,2.60
2022-10-20T04:30:17.745Z,2.73
2022-10-20T04:32:44.363Z,2.20
2022-10-20T04:35:10.981Z,2.30
2022-10-20T04:37:37.971Z,2.47
2022-10-20T04:40:05.116Z,2.40
2022-10-20T04:42:32.118Z,2.23
2022-10-20T04:47:34.228Z,3.47
2022-10-20T04:50:01.116Z,3.10
2022-10-20T04:52:28.912Z,3.00
2022-10-20T04:54:55.586Z,3.67
2022-10-20T04:57:22.306Z,2.90
2022-10-20T04:59:48.935Z,3.13
2022-10-20T05:02:15.588Z,3.07
2022-10-20T05:04:42.276Z,2.80
2022-10-20T05:07:08.938Z,3.00
2022-10-20T05:09:35.628Z,2.70
2022-10-20T05:12:02.376Z,2.50
2022-10-20T05:14:29.026Z,2.33
2022-10-20T05:16:55.667Z,2.73
2022-10-20T05:19:22.353Z,2.80
2022-10-20T05:21:48.989Z,2.53
2022-10-20T05:24:20.822Z,2.83
2022-10-20T05:26:48.807Z,3.30
2022-10-20T05:29:15.458Z,2.97
2022-10-20T05:31:43.550Z,2.47
2022-10-20T05:34:11.191Z,2.70
2022-10-20T05:36:38.547Z,2.87
2022-10-20T05:39:05.353Z,2.70
2022-10-20T05:41:36.458Z,2.97
2022-10-20T05:44:08.445Z,3.00
2022-10-20T05:46:38.351Z,3.03
2022-10-20T05:49:05.056Z,2.90
2022-10-20T05:51:34.925Z,2.57
2022-10-20T05:54:02.044Z,2.80
2022-10-20T05:56:30.242Z,2.83
2022-10-20T05:58:57.544Z,3.17
2022-10-20T06:01:26.989Z,2.47
2022-10-20T06:03:56.843Z,2.53
2022-10-20T06:06:25.980Z,2.47
2022-10-20T06:08:53.527Z,2.97
2022-10-20T06:11:21.199Z,3.00
2022-10-20T06:13:51.688Z,3.43
2022-10-20T06:16:24.733Z,2.97
2022-10-20T06:18:51.619Z,2.67
2022-10-20T06:21:23.927Z,2.67
2022-10-20T06:23:51.446Z,2.70
2022-10-20T06:26:21.608Z,3.23
2022-10-20T06:28:50.536Z,2.90
2022-10-20T06:31:30.624Z,3.07
2022-10-20T06:33:57.975Z,3.30
2022-10-20T06:36:25.708Z,3.13
2022-10-20T06:38:56.773Z,3.03
2022-10-20T06:41:24.742Z,3.63
2022-10-20T06:43:58.115Z,3.20
2022-10-20T06:46:29.292Z,3.10
2022-10-20T06:48:58.661Z,3.70
2022-10-20T06:51:25.944Z,3.20
2022-10-20T06:53:52.993Z,2.87
2022-10-20T06:56:23.012Z,3.47
2022-10-20T06:58:51.507Z,3.20
2022-10-20T07:01:25.714Z,3.10
2022-10-20T07:03:55.280Z,2.80
2022-10-20T07:06:24.809Z,2.87
2022-10-20T07:08:53.768Z,2.97
2022-10-20T07:11:22.187Z,3.00
2022-10-20T07:13:49.268Z,2.50
2022-10-20T07:16:18.653Z,2.50
2022-10-20T07:18:46.137Z,3.30
2022-10-20T07:21:15.695Z,2.80
2022-10-20T07:23:42.587Z,2.87
2022-10-20T07:26:12.728Z,2.40
2022-10-20T07:28:45.233Z,2.53
2022-10-20T07:31:18.195Z,2.80
2022-10-20T07:33:45.935Z,2.93
2022-10-20T07:36:29.375Z,2.93
2022-10-20T07:39:00.848Z,2.93
2022-10-20T07:41:28.088Z,2.83
2022-10-20T07:43:55.884Z,2.60
2022-10-20T07:46:23.148Z,2.47
2022-10-20T07:48:49.961Z,2.90
2022-10-20T07:51:24.625Z,2.70
2022-10-20T07:53:59.759Z,2.40
2022-10-20T07:56:29.557Z,2.60
2022-10-20T07:58:56.345Z,2.40
2022-10-20T08:01:23.590Z,2.53
2022-10-20T08:03:50.491Z,2.60
2022-10-20T08:06:17.177Z,2.40
2022-10-20T08:08:44.117Z,2.20
2022-10-20T08:11:10.834Z,2.67
2022-10-20T08:13:39.460Z,2.60
2022-10-20T08:16:09.628Z,2.83
2022-10-20T08:18:37.358Z,3.30
2022-10-20T08:21:16.618Z,2.83
2022-10-20T08:23:45.405Z,2.33
2022-10-20T08:26:16.385Z,2.43
2022-10-20T08:28:42.998Z,2.00
2022-10-20T08:31:09.691Z,2.27
2022-10-20T08:33:36.579Z,2.27
2022-10-20T08:36:08.844Z,2.40
2022-10-20T08:38:36.372Z,2.30
2022-10-20T08:41:04.979Z,2.20
2022-10-20T08:43:40.567Z,2.70
2022-10-20T08:46:12.234Z,2.43
2022-10-20T08:48:39.140Z,2.30
2022-10-20T08:51:05.913Z,2.23
2022-10-20T08:53:39.201Z,2.40
2022-10-20T08:56:06.103Z,2.17
2022-10-20T08:58:33.306Z,1.80
2022-10-20T09:01:00.827Z,2.00
2022-10-20T09:03:33.023Z,2.03
2022-10-20T09:06:14.270Z,1.90
2022-10-20T09:08:42.498Z,2.30
2022-10-20T09:11:16.251Z,2.20
2022-10-20T09:13:43.088Z,1.67
2022-10-20T09:16:40.850Z,2.17
2022-10-20T09:19:20.500Z,2.40
2022-10-20T09:21:52.356Z,2.00
2022-10-20T09:24:21.566Z,2.47
2022-10-20T09:27:05.505Z,2.17
2022-10-20T09:29:37.817Z,2.20
2022-10-20T09:32:52.648Z,2.20
2022-10-20T09:35:22.732Z,2.27
2022-10-20T09:38:02.953Z,2.50
2022-10-20T09:40:30.185Z,2.30
2022-10-20T09:43:09.580Z,2.17
2022-10-20T09:45:47.209Z,2.20
2022-10-20T09:48:36.344Z,2.80
2022-10-20T09:51:05.433Z,2.00
2022-10-20T09:53:35.926Z,2.00
2022-10-20T09:56:02.759Z,2.20
2022-10-20T09:58:33.173Z,2.20
2022-10-20T10:01:11.918Z,2.43
2022-10-20T10:03:41.899Z,2.20
2022-10-20T10:06:32.798Z,2.00
2022-10-20T10:09:01.677Z,2.30
2022-10-20T10:11:36.479Z,2.20
2022-10-20T10:14:03.720Z,1.93
2022-10-20T10:16:41.530Z,2.20
2022-10-20T10:21:57.439Z,2.20
2022-10-20T10:24:48.409Z,2.30
2022-10-20T10:27:36.084Z,2.20
2022-10-20T10:30:30.071Z,2.07
2022-10-20T10:32:57.023Z,2.10
2022-10-20T10:35:28.987Z,2.33
2022-10-20T10:37:56.177Z,2.27
2022-10-20T10:40:34.925Z,2.20
2022-10-20T10:43:24.727Z,2.40
2022-10-20T10:45:56.089Z,2.50
2022-10-20T10:48:46.413Z,2.17
2022-10-20T10:51:22.337Z,2.37
2022-10-20T10:53:52.421Z,2.50
2022-10-20T10:57:01.516Z,2.43
2022-10-20T10:59:36.067Z,2.17
2022-10-20T11:02:27.373Z,2.30
2022-10-20T11:05:28.169Z,2.63
2022-10-20T11:08:32.440Z,2.40
2022-10-20T11:11:51.960Z,2.43
2022-10-20T11:14:37.673Z,2.63
2022-10-20T11:17:20.091Z,2.23
2022-10-20T11:20:12.652Z,2.57
2022-10-20T11:22:48.368Z,2.60
2022-10-20T11:25:49.192Z,2.40
2022-10-20T11:28:36.332Z,2.60
2022-10-20T11:31:04.145Z,2.70
2022-10-20T11:33:44.486Z,2.40
2022-10-20T11:36:19.283Z,2.60
2022-10-20T11:38:50.478Z,2.33
2022-10-20T11:41:49.220Z,2.50
2022-10-20T11:44:25.419Z,2.93
2022-10-20T11:46:57.513Z,3.53
2022-10-20T11:49:24.774Z,2.80
2022-10-20T11:52:16.135Z,2.73
2022-10-20T11:54:52.526Z,3.40
2022-10-20T11:57:36.344Z,3.33
2022-10-20T12:00:22.313Z,3.23
2022-10-20T12:03:18.091Z,3.17
2022-10-20T12:05:47.658Z,2.93
2022-10-20T12:08:45.941Z,3.13
2022-10-20T12:11:29.776Z,2.80
2022-10-20T12:14:14.635Z,3.10
2022-10-20T12:16:53.831Z,4.43
2022-10-20T12:19:26.212Z,3.50
2022-10-20T12:22:04.920Z,3.60
2022-10-20T12:24:33.551Z,3.13
2022-10-20T12:27:05.995Z,3.60
2022-10-20T12:29:32.525Z,3.27
2022-10-20T12:32:35.996Z,3.57
2022-10-20T12:35:11.684Z,3.20
2022-10-20T12:37:42.166Z,3.33
2022-10-20T12:40:11.433Z,3.07
2022-10-20T12:42:46.126Z,3.13
2022-10-20T12:45:18.756Z,3.80
2022-10-20T12:48:01.670Z,3.33
2022-10-20T12:50:41.847Z,3.30
2022-10-20T12:53:18.028Z,3.77
2022-10-20T12:55:48.093Z,2.97
2022-10-20T12:58:17.639Z,3.33
2022-10-20T13:00:47.476Z,3.33
2022-10-20T13:03:38.596Z,3.37
2022-10-20T13:06:23.495Z,3.20
2022-10-20T13:09:10.090Z,3.60
2022-10-20T13:11:40.601Z,3.37
2022-10-20T13:14:13.320Z,4.17
2022-10-20T13:16:58.200Z,3.83
2022-10-20T13:19:34.989Z,3.13
2022-10-20T13:22:30.627Z,3.50
2022-10-20T13:24:59.390Z,3.57
2022-10-20T13:27:28.806Z,3.57
2022-10-20T13:29:55.664Z,3.57
2022-10-20T13:33:10.950Z,3.20
2022-10-20T13:35:52.910Z,3.37
2022-10-20T13:38:38.182Z,2.83
2022-10-20T13:41:29.035Z,2.87
2022-10-20T13:44:11.757Z,3.17
2022-10-20T13:47:01.037Z,3.03
2022-10-20T13:49:48.300Z,2.90
2022-10-20T13:52:18.917Z,2.80
2022-10-20T13:54:50.935Z,3.07
2022-10-20T13:57:28.880Z,3.07
2022-10-20T14:00:01.096Z,3.87
2022-10-20T14:02:32.198Z,3.07
2022-10-20T14:05:12.479Z,2.90
2022-10-20T14:07:44.521Z,2.97
2022-10-20T14:10:28.226Z,2.97
2022-10-20T14:12:56.026Z,2.93
2022-10-20T14:15:53.258Z,2.60
2022-10-20T14:18:31.639Z,2.90
2022-10-20T14:21:02.505Z,2.53
2022-10-20T14:23:36.880Z,3.10
2022-10-20T14:26:07.243Z,3.27
2022-10-20T14:28:35.695Z,3.83
2022-10-20T14:31:03.200Z,3.03
2022-10-20T14:33:30.670Z,2.97
2022-10-20T14:35:59.283Z,3.00
2022-10-20T14:38:37.270Z,3.17
2022-10-20T14:41:06.429Z,3.30
2022-10-20T14:43:53.057Z,3.00
2022-10-20T14:46:36.372Z,3.53
2022-10-20T14:49:04.328Z,3.57
2022-10-20T14:51:45.014Z,3.50
2022-10-20T14:54:20.946Z,4.40
2022-10-20T14:56:50.537Z,7.90
2022-10-20T14:59:19.703Z,3.33
2022-10-20T15:02:02.356Z,3.53
2022-10-20T15:04:32.204Z,3.23
2022-10-20T15:07:17.888Z,3.37
2022-10-20T15:09:44.470Z,3.83
2022-10-20T15:12:23.325Z,3.97
2022-10-20T15:14:53.523Z,4.63
2022-10-20T15:17:37.792Z,3.67
2022-10-20T15:20:42.606Z,4.03
2022-10-20T15:23:18.391Z,6.33
2022-10-20T15:26:03.138Z,4.50
2022-10-20T15:28:42.818Z,4.40
2022-10-20T15:31:23.329Z,4.37
2022-10-20T15:33:51.164Z,4.10
2022-10-20T15:36:26.308Z,3.60
2022-10-20T15:38:52.965Z,3.77
2022-10-20T15:41:22.726Z,3.33
2022-10-20T15:43:49.374Z,3.67
2022-10-20T15:46:17.638Z,3.40
2022-10-20T15:48:45.084Z,4.17
2022-10-20T15:51:20.739Z,3.70
2022-10-20T15:53:49.384Z,4.17
2022-10-20T15:56:17.297Z,3.80
2022-10-20T15:58:44.150Z,3.40
2022-10-20T16:01:14.597Z,4.87
2022-10-20T16:03:43.281Z,3.60
2022-10-20T16:06:13.393Z,4.27
2022-10-20T16:08:44.220Z,3.73
2022-10-20T16:11:11.259Z,3.70
2022-10-20T16:13:38.571Z,4.40
2022-10-20T16:16:07.285Z,5.03
2022-10-20T16:18:34.005Z,4.40
2022-10-20T16:21:01.141Z,4.33
2022-10-20T16:23:27.778Z,4.50
2022-10-20T16:25:54.365Z,4.60
2022-10-20T16:28:20.986Z,4.60
2022-10-20T16:30:47.585Z,4.30
2022-10-20T16:33:14.171Z,4.50
2022-10-20T16:35:42.539Z,4.60
2022-10-20T16:38:09.111Z,4.37
2022-10-20T16:40:36.169Z,4.40
2022-10-20T16:43:02.811Z,4.93
2022-10-20T16:45:29.430Z,5.37
2022-10-20T16:47:56.141Z,4.53
2022-10-20T16:50:22.752Z,4.40
2022-10-20T16:52:49.417Z,5.50
2022-10-20T16:55:16.102Z,4.63
2022-10-20T16:57:42.805Z,4.97
2022-10-20T17:00:10.025Z,4.80
2022-10-20T17:02:37.523Z,4.43
2022-10-20T17:05:08.209Z,4.30
2022-10-20T17:07:36.645Z,4.73
2022-10-20T17:10:03.695Z,4.70
2022-10-20T17:12:30.326Z,4.07
2022-10-20T17:14:56.984Z,4.57
2022-10-20T17:17:23.576Z,4.17
2022-10-20T17:19:50.156Z,4.50
2022-10-20T17:22:17.197Z,4.80
2022-10-20T17:24:43.798Z,5.33
2022-10-20T17:27:10.376Z,4.27
2022-10-20T17:29:37.144Z,4.53
2022-10-20T17:32:03.983Z,4.93
2022-10-20T17:34:30.621Z,4.53
2022-10-20T17:36:57.244Z,4.37
2022-10-20T17:39:24.615Z,6.40
2022-10-20T17:41:51.278Z,4.60
2022-10-20T17:44:17.905Z,4.20
2022-10-20T17:47:35.658Z,3.90
2022-10-20T17:50:02.443Z,4.17
2022-10-20T17:52:30.140Z,4.63
2022-10-20T17:54:56.768Z,4.23
2022-10-20T17:57:23.456Z,4.07
2022-10-20T17:59:53.375Z,4.37
2022-10-20T18:02:23.594Z,4.17
2022-10-20T18:04:51.009Z,4.30
2022-10-20T18:07:17.617Z,4.23
2022-10-20T18:09:44.527Z,3.73
2022-10-20T18:12:11.165Z,4.03
2022-10-20T18:14:37.805Z,4.33
2022-10-20T18:17:04.431Z,5.00
2022-10-20T18:19:31.247Z,4.07
2022-10-20T18:21:57.996Z,4.07
2022-10-20T18:24:24.700Z,4.60
2022-10-20T18:26:51.365Z,4.50
2022-10-20T18:29:18.356Z,3.93
2022-10-20T18:31:46.840Z,3.90
2022-10-20T18:34:22.606Z,4.20
2022-10-20T18:36:50.865Z,3.90
2022-10-20T18:39:17.604Z,3.80
2022-10-20T18:41:45.398Z,4.20
2022-10-20T18:44:14.813Z,4.33
2022-10-20T18:46:41.998Z,4.50
2022-10-20T18:49:11.355Z,9.67
2022-10-20T18:51:38.120Z,5.77
2022-10-20T18:54:06.587Z,8.20
2022-10-20T18:56:34.092Z,5.77
2022-10-20T18:59:02.775Z,7.90
2022-10-20T19:01:32.571Z,4.67
2022-10-20T19:04:00.371Z,6.83
2022-10-20T19:10:52.216Z,4.10
2022-10-20T19:13:18.856Z,8.07
2022-10-20T19:16:12.532Z,4.30
2022-10-20T19:18:42.450Z,3.90
2022-10-20T19:22:05.807Z,4.20
2022-10-20T19:25:23.856Z,3.80
2022-10-20T19:27:50.480Z,4.10
2022-10-20T19:30:17.226Z,4.27
2022-10-20T19:33:46.769Z,4.87
2022-10-20T19:36:13.474Z,4.60
2022-10-20T19:38:40.388Z,4.90
2022-10-20T19:41:07.388Z,4.83
2022-10-20T19:43:35.367Z,5.33
2022-10-20T19:46:03.239Z,5.37
2022-10-20T19:48:30.157Z,5.33
2022-10-20T19:50:56.793Z,5.40
2022-10-20T19:53:24.777Z,5.03
2022-10-20T19:55:51.784Z,4.77
2022-10-20T19:58:20.260Z,5.27
2022-10-20T20:00:50.346Z,5.50
2022-10-20T20:03:17.494Z,7.13
2022-10-20T20:05:48.104Z,9.57
2022-10-20T20:08:15.108Z,5.10
2022-10-20T20:10:41.742Z,4.97
2022-10-20T20:14:07.623Z,4.60
2022-10-20T20:16:38.569Z,5.43
2022-10-20T20:19:05.707Z,5.10
2022-10-20T20:21:32.361Z,5.63
2022-10-20T20:24:01.435Z,5.60
2022-10-20T20:26:33.597Z,5.37
2022-10-20T20:29:00.422Z,4.97
2022-10-20T20:31:27.946Z,5.60
2022-10-20T20:33:56.508Z,5.40
2022-10-20T20:36:26.131Z,5.30
2022-10-20T20:38:55.083Z,5.40
2022-10-20T20:41:25.922Z,5.30
2022-10-20T20:43:52.756Z,5.33
2022-10-20T20:46:22.253Z,5.43
2022-10-20T20:48:49.098Z,5.73
2022-10-20T20:51:16.241Z,5.20
2022-10-20T20:53:42.891Z,5.60
2022-10-20T20:56:12.105Z,5.27
2022-10-20T20:58:40.662Z,5.60
2022-10-20T21:01:18.651Z,5.53
2022-10-20T21:03:45.927Z,5.30
2022-10-20T21:06:15.478Z,4.57
2022-10-20T21:08:44.365Z,5.37
2022-10-20T21:11:16.662Z,5.43
2022-10-20T21:13:44.318Z,5.10
2022-10-20T21:16:14.677Z,3.70
2022-10-20T21:18:43.469Z,4.53
2022-10-20T21:21:16.634Z,5.17
2022-10-20T21:23:43.595Z,5.93
2022-10-20T21:26:12.045Z,5.73
2022-10-20T21:28:39.599Z,5.60
2022-10-20T21:31:07.662Z,5.50
2022-10-20T21:33:35.889Z,5.40
2022-10-20T21:36:11.373Z,5.70
2022-10-20T21:38:39.984Z,5.10
2022-10-20T21:41:13.386Z,5.30
2022-10-20T21:43:42.756Z,5.27
2022-10-20T21:46:19.874Z,5.17
2022-10-20T21:48:48.354Z,4.90
2022-10-20T21:51:20.443Z,5.33
2022-10-20T21:53:47.848Z,5.00
2022-10-20T21:56:15.359Z,5.43
2022-10-20T21:58:43.431Z,10.97
2022-10-20T22:01:15.382Z,5.30
2022-10-20T22:03:42.687Z,5.37
2022-10-20T22:06:10.695Z,5.33
2022-10-20T22:08:39.216Z,5.53
2022-10-20T22:11:08.510Z,5.40
2022-10-20T22:13:38.720Z,5.30
2022-10-20T22:16:09.784Z,5.10
2022-10-20T22:18:38.959Z,5.60
2022-10-20T22:21:13.345Z,5.00
2022-10-20T22:23:41.259Z,5.77
2022-10-20T22:26:08.171Z,11.60
2022-10-20T22:28:34.845Z,6.87
2022-10-20T22:33:33.349Z,5.10
2022-10-20T22:36:00.288Z,5.03
2022-10-20T22:38:26.914Z,5.60
2022-10-20T22:40:58.669Z,5.60
2022-10-20T22:43:25.662Z,5.27
2022-10-20T22:45:52.252Z,5.10
2022-10-20T22:48:18.957Z,5.30
2022-10-20T22:50:45.708Z,5.20
2022-10-20T22:53:12.655Z,5.30
2022-10-20T22:55:39.273Z,5.40
2022-10-20T22:58:05.937Z,5.43
2022-10-20T23:00:32.563Z,5.17
2022-10-20T23:02:59.247Z,5.40
2022-10-20T23:05:25.920Z,5.47
2022-10-20T23:07:52.505Z,5.73
2022-10-20T23:10:19.497Z,5.57
2022-10-20T23:12:46.192Z,5.90
2022-10-20T23:15:12.772Z,5.43
2022-10-20T23:17:39.786Z,5.40
2022-10-20T23:20:06.791Z,5.03
2022-10-20T23:22:33.462Z,4.33
2022-10-20T23:25:01.433Z,5.80
2022-10-20T23:27:28.191Z,5.63
2022-10-20T23:29:54.783Z,4.87
2022-10-20T23:32:21.346Z,5.80
2022-10-20T23:34:47.979Z,5.73
2022-10-20T23:37:14.555Z,5.33
2022-10-20T23:39:41.165Z,6.47
2022-10-20T23:42:07.730Z,6.37
2022-10-20T23:44:34.329Z,5.97
2022-10-20T23:47:00.979Z,5.53
2022-10-20T23:49:27.535Z,5.63
2022-10-20T23:51:54.220Z,6.17
2022-10-20T23:54:21.027Z,5.93
2022-10-20T23:56:47.667Z,6.00
2022-10-20T23:59:14.487Z,5.97
